createdAt,value
2018-04-16T00:03:28.986Z,8.24
2018-04-16T00:07:29.791Z,8.64
2018-04-16T00:13:30.597Z,8.15
2018-04-16T00:17:31.417Z,8.31
2018-04-16T00:19:32.162Z,8.11
2018-04-16T00:23:32.810Z,8.09
2018-04-16T00:29:33.619Z,7.81
2018-04-16T00:33:34.403Z,7.63
2018-04-16T00:39:35.167Z,8.81
2018-04-16T00:43:35.904Z,8.76
2018-04-16T00:45:36.645Z,8.4
2018-04-16T00:49:37.333Z,8.22
2018-04-16T00:55:38.094Z,8.84
2018-04-16T00:59:38.881Z,8.71
2018-04-16T01:05:39.885Z,9.09
2018-04-16T01:11:40.833Z,8.75
2018-04-16T01:15:41.744Z,8.47
2018-04-16T01:21:42.703Z,9.25
2018-04-16T01:25:43.515Z,9.69
2018-04-16T01:27:44.228Z,9.93
2018-04-16T01:31:45.344Z,9.18
2018-04-16T01:37:46.073Z,9.3
2018-04-16T01:41:46.900Z,9.58
2018-04-16T01:47:47.713Z,9.87
2018-04-16T01:53:48.537Z,8.87
2018-04-16T01:57:49.393Z,9.03
2018-04-16T02:03:50.324Z,9.43
2018-04-16T02:07:51.009Z,9.44
2018-04-16T02:13:51.742Z,9.14
2018-04-16T02:19:52.475Z,9.55
2018-04-16T02:23:53.249Z,9.04
2018-04-16T02:29:54.089Z,9.25
2018-04-16T02:33:54.810Z,8.63
2018-04-16T02:35:55.560Z,8.32
2018-04-16T02:39:56.248Z,8.84
2018-04-16T02:45:56.943Z,9.42
2018-04-16T02:49:57.799Z,8.59
2018-04-16T02:55:58.512Z,9.32
2018-04-16T03:01:59.301Z,9.51
2018-04-16T03:06:00.067Z,10.1
2018-04-16T03:12:00.839Z,9.47
2018-04-16T03:16:01.681Z,8.98
2018-04-16T03:16:01.698Z,8.98
2018-04-16T03:18:02.334Z,8.69
2018-04-16T03:22:03.126Z,9.19
2018-04-16T03:28:03.834Z,9.94
2018-04-16T03:32:04.618Z,9.34
2018-04-16T03:38:05.321Z,10.02
2018-04-16T03:42:06.040Z,9.16
2018-04-16T03:44:06.702Z,9.65
2018-04-16T03:48:07.470Z,9.34
2018-04-16T03:54:08.280Z,9.76
2018-04-16T03:58:09.068Z,8.99
2018-04-16T04:04:10.085Z,10.54
2018-04-16T04:10:10.926Z,11.18
2018-04-16T04:14:11.638Z,10.58
2018-04-16T04:20:12.481Z,10.99
2018-04-16T04:24:13.386Z,10.62
2018-04-16T04:26:14.045Z,10.48
2018-04-16T04:30:15.159Z,10.85
2018-04-16T04:36:15.944Z,11.58
2018-04-16T04:40:16.739Z,11.24
2018-04-16T04:46:17.540Z,11.19
2018-04-16T04:52:18.265Z,11.62
2018-04-16T04:56:19.095Z,11.81
2018-04-16T05:02:19.816Z,11.61
2018-04-16T05:06:20.567Z,11.68
2018-04-16T05:08:21.517Z,11.15
2018-04-16T05:12:22.291Z,11.15
2018-04-16T05:18:23.238Z,13.8
2018-04-16T05:22:24.044Z,11.99
2018-04-16T05:28:24.992Z,13.17
2018-04-16T05:32:25.783Z,11.74
2018-04-16T05:34:26.480Z,12.76
2018-04-16T05:38:27.324Z,13.59
2018-04-16T05:44:28.154Z,13.5
2018-04-16T05:48:28.947Z,14.27
2018-04-16T05:54:29.842Z,14.3
2018-04-16T06:00:30.995Z,13.65
2018-04-16T06:04:32.005Z,12.58
2018-04-16T06:10:32.787Z,13.82
2018-04-16T06:14:33.713Z,12.88
2018-04-16T06:20:34.687Z,12.6
2018-04-16T06:26:35.685Z,14.1
2018-04-16T06:30:36.517Z,14.95
2018-04-16T06:36:37.613Z,14
2018-04-16T06:40:38.308Z,14.45
2018-04-16T06:42:39.245Z,13.92
2018-04-16T06:46:40.012Z,13.92
2018-04-16T06:52:40.765Z,13.45
2018-04-16T06:56:41.446Z,13.11
2018-04-16T07:02:42.232Z,12.66
2018-04-16T07:08:43.100Z,13.51
2018-04-16T07:12:44.044Z,12.36
2018-04-16T07:18:45.047Z,12.64
2018-04-16T07:22:46.059Z,12.5
2018-04-16T07:24:47.045Z,12.99
2018-04-16T07:28:47.704Z,14.19
2018-04-16T07:34:48.644Z,14.34
2018-04-16T07:38:49.611Z,14.04
2018-04-16T07:44:50.435Z,14.05
2018-04-16T07:48:51.439Z,12.57
2018-04-16T07:50:52.190Z,12.31
2018-04-16T07:54:53.239Z,12.34
2018-04-16T08:00:53.928Z,12.94
2018-04-16T08:04:54.700Z,12.47
2018-04-16T08:10:55.480Z,12.62
2018-04-16T08:16:56.559Z,12.99
2018-04-16T08:20:57.362Z,13.19
2018-04-16T08:26:58.331Z,13.14
2018-04-16T08:30:59.201Z,13.24
2018-04-16T08:33:00.174Z,14.89
2018-04-16T08:37:01.142Z,13.62
2018-04-16T08:43:01.928Z,13.25
2018-04-16T08:47:03.050Z,13.12
2018-04-16T08:53:03.968Z,12.15
2018-04-16T08:57:04.658Z,12.41
2018-04-16T08:59:05.449Z,11.61
2018-04-16T09:03:06.298Z,11.15
2018-04-16T09:09:07.237Z,12.9
2018-04-16T09:13:08.145Z,12.17
2018-04-16T09:19:08.909Z,13.74
2018-04-16T09:25:09.974Z,12.99
2018-04-16T09:29:10.790Z,12.3
2018-04-16T09:35:11.604Z,12.79
2018-04-16T09:39:12.310Z,12.12
2018-04-16T09:41:14.165Z,11.87
2018-04-16T09:45:15.180Z,11.45
2018-04-16T09:51:16.046Z,12.37
2018-04-16T09:55:16.904Z,12.57
2018-04-16T10:01:18.520Z,12.7
2018-04-16T10:07:19.626Z,12.81
2018-04-16T10:11:20.960Z,11.8
2018-04-16T10:17:22.025Z,13.53
2018-04-16T10:21:22.922Z,13.43
2018-04-16T10:27:23.743Z,12.9
2018-04-16T10:33:24.499Z,12.84
2018-04-16T10:37:25.362Z,12.16
2018-04-16T10:43:26.129Z,12.13
2018-04-16T10:47:26.998Z,12.49
2018-04-16T10:49:27.714Z,11.73
2018-04-16T10:53:28.665Z,11.29
2018-04-16T10:59:29.403Z,12.41
2018-04-16T11:03:30.109Z,12.35
2018-04-16T11:09:30.994Z,11.92
2018-04-16T11:15:32.188Z,12.35
2018-04-16T11:19:32.950Z,11.26
2018-04-16T11:25:33.653Z,12.19
2018-04-16T11:29:34.610Z,11.36
2018-04-16T11:35:35.348Z,11.4
2018-04-16T11:41:36.269Z,12.04
2018-04-16T11:45:37.290Z,11.23
2018-04-16T11:51:38.164Z,11.73
2018-04-16T11:55:39.032Z,11.7
2018-04-16T11:57:39.900Z,12.11
2018-04-16T12:01:40.627Z,11.44
2018-04-16T12:07:41.409Z,12.64
2018-04-16T12:11:42.673Z,11.04
2018-04-16T12:17:43.791Z,12.24
2018-04-16T12:23:44.725Z,11.35
2018-04-16T12:27:45.693Z,10.68
2018-04-16T12:33:46.542Z,10.61
2018-04-16T12:37:47.565Z,10.03
2018-04-16T12:39:48.420Z,10.59
2018-04-16T12:43:49.478Z,9.69
2018-04-16T12:49:51.253Z,9.15
2018-04-16T12:53:52.077Z,10.4
2018-04-16T12:59:52.901Z,10.18
2018-04-16T13:03:53.733Z,9.1
2018-04-16T13:05:54.426Z,10.07
2018-04-16T13:09:57.040Z,9.68
2018-04-16T13:15:59.689Z,10.35
2018-04-16T13:20:00.643Z,9.63
2018-04-16T13:26:01.504Z,10.09
2018-04-16T13:32:02.699Z,9.51
2018-04-16T13:36:03.445Z,8.68
2018-04-16T13:42:04.265Z,8.6
2018-04-16T13:46:04.958Z,8.45
2018-04-16T13:52:05.742Z,9.3
2018-04-16T13:58:06.667Z,9.05
2018-04-16T14:02:07.512Z,8.82
2018-04-16T14:08:08.492Z,8.16
2018-04-16T14:12:09.910Z,8.24
2018-04-16T14:14:11.224Z,8.69
2018-04-16T14:18:12.012Z,8.23
2018-04-16T14:24:12.831Z,8.17
2018-04-16T14:28:13.630Z,8.03
2018-04-16T14:34:14.588Z,8
2018-04-16T14:40:15.690Z,8.59
2018-04-16T14:44:16.467Z,8.1
2018-04-16T14:50:17.356Z,13.18
2018-04-16T14:54:18.106Z,15.26
2018-04-16T14:56:18.888Z,24.69
2018-04-16T15:00:19.884Z,20.23
2018-04-16T15:06:20.610Z,11.73
2018-04-16T15:10:21.355Z,11.16
2018-04-16T15:16:22.358Z,8.4
2018-04-16T15:20:23.117Z,8.11
2018-04-16T15:22:24.106Z,8.06
2018-04-16T15:26:24.906Z,8.36
2018-04-16T15:32:25.653Z,7.48
2018-04-16T15:36:26.652Z,7.68
2018-04-16T15:42:27.570Z,7.55
2018-04-16T15:48:28.315Z,8.13
2018-04-16T15:52:29.152Z,7.93
2018-04-16T15:58:30.254Z,7.28
2018-04-16T16:02:31.100Z,7.37
2018-04-16T16:04:32.363Z,7.93
2018-04-16T16:08:33.257Z,7.56
2018-04-16T16:14:34.389Z,9.17
2018-04-16T16:18:35.178Z,9.31
2018-04-16T16:24:35.919Z,9
2018-04-16T16:28:36.753Z,9.03
2018-04-16T16:30:37.405Z,8.61
2018-04-16T16:34:38.536Z,8.49
2018-04-16T16:40:39.657Z,8.13
2018-04-16T16:44:40.710Z,8.05
2018-04-16T16:50:41.979Z,8.17
2018-04-16T16:56:42.793Z,7.44
2018-04-16T17:00:43.675Z,7.64
2018-04-16T17:06:44.764Z,7.87
2018-04-16T17:10:45.617Z,7.62
2018-04-16T17:12:46.351Z,7.2
2018-04-16T17:16:47.208Z,7.13
2018-04-16T17:22:48.403Z,7.12
2018-04-16T17:26:49.903Z,7
2018-04-16T17:32:50.991Z,8.15
2018-04-16T17:36:52.204Z,8.07
2018-04-16T17:38:52.922Z,9.14
2018-04-16T17:42:53.637Z,8.41
2018-04-16T17:48:54.408Z,10.47
2018-04-16T17:52:55.560Z,9.61
2018-04-16T17:58:56.647Z,9.98
2018-04-16T18:04:57.774Z,10.69
2018-04-16T18:08:59.028Z,10.77
2018-04-16T18:15:00.683Z,7.88
2018-04-16T18:19:02.221Z,7.68
2018-04-16T18:25:04.004Z,7.66
2018-04-16T18:31:05.173Z,7.26
2018-04-16T18:35:06.315Z,7.16
2018-04-16T18:41:07.355Z,7.71
2018-04-16T18:45:08.406Z,7.7
2018-04-16T18:47:09.522Z,9.12
2018-04-16T18:51:10.585Z,8.9
2018-04-16T18:57:11.718Z,8.14
2018-04-16T19:01:13.051Z,7.17
2018-04-16T19:07:14.099Z,8.13
2018-04-16T19:13:15.343Z,9.37
2018-04-16T19:17:16.753Z,8.72
2018-04-16T19:23:17.436Z,6.78
2018-04-16T19:27:18.263Z,6.56
2018-04-16T19:33:19.057Z,6.98
2018-04-16T19:39:19.936Z,7.28
2018-04-16T19:43:21.315Z,7.02
2018-04-16T19:49:22.227Z,7.9
2018-04-16T19:53:22.986Z,7.28
2018-04-16T19:55:34.184Z,7.69
2018-04-16T19:59:35.145Z,6.94
2018-04-16T20:05:35.968Z,5.95
2018-04-16T20:09:36.740Z,5.87
2018-04-16T20:15:38.300Z,7.5
2018-04-16T20:19:39.342Z,7.81
2018-04-16T20:21:40.110Z,7.75
2018-04-16T20:25:41.012Z,7.24
2018-04-16T20:31:42.494Z,7.9
2018-04-16T20:35:43.489Z,6.79
2018-04-16T20:41:44.227Z,6.96
2018-04-16T20:45:45.285Z,7.56
2018-04-16T20:47:46.029Z,7.4
2018-04-16T20:51:46.834Z,6.56
2018-04-16T20:57:47.590Z,7.24
2018-04-16T21:01:48.394Z,6.73
2018-04-16T21:07:51.020Z,7.21
2018-04-16T21:13:51.900Z,8.04
2018-04-16T21:17:52.727Z,9.15
2018-04-16T21:23:53.610Z,8.8
2018-04-16T21:27:55.094Z,9.17
2018-04-16T21:29:55.752Z,7.96
2018-04-16T21:33:56.636Z,7.72
2018-04-16T21:39:57.493Z,7.52
2018-04-16T21:43:58.200Z,7.22
2018-04-16T21:49:58.915Z,8.04
2018-04-16T21:55:59.695Z,7.89
2018-04-16T22:00:00.693Z,7.8
2018-04-16T22:06:01.520Z,9.17
2018-04-16T22:10:02.337Z,9.12
2018-04-16T22:16:02.993Z,8.93
2018-04-16T22:22:03.810Z,8.5
2018-04-16T22:26:04.548Z,8.38
2018-04-16T22:32:05.295Z,7.85
2018-04-16T22:36:06.092Z,7.53
2018-04-16T22:38:06.816Z,7.33
2018-04-16T22:42:08.224Z,7.58
2018-04-16T22:48:09.639Z,8.28
2018-04-16T22:52:10.381Z,8.67
2018-04-16T22:58:11.194Z,7.08
2018-04-16T23:04:11.998Z,6.62
2018-04-16T23:08:12.705Z,6.42
2018-04-16T23:14:13.550Z,7.08
2018-04-16T23:18:14.323Z,7.56
2018-04-16T23:24:15.060Z,6.94
2018-04-16T23:30:16.135Z,7.12
2018-04-16T23:34:16.870Z,7
2018-04-16T23:40:17.661Z,6.14
2018-04-16T23:44:18.436Z,5.43
2018-04-16T23:46:19.131Z,6.1
2018-04-16T23:50:19.871Z,5.75
2018-04-16T23:56:20.567Z,6.77
